createdAt,value
2022-12-29T00:01:13.812Z,10.10
2022-12-29T00:03:41.988Z,10.13
2022-12-29T00:06:10.061Z,10.09
2022-12-29T00:08:44.652Z,10.09
2022-12-29T00:11:15.676Z,10.13
2022-12-29T00:14:02.403Z,10.08
2022-12-29T00:16:32.839Z,10.08
2022-12-29T00:19:01.044Z,10.08
2022-12-29T00:21:47.489Z,10.10
2022-12-29T00:24:35.908Z,10.15
2022-12-29T00:27:31.151Z,10.15
2022-12-29T00:30:17.414Z,10.22
2022-12-29T00:33:05.137Z,10.20
2022-12-29T00:35:37.956Z,10.22
2022-12-29T00:38:27.083Z,10.23
2022-12-29T00:41:12.482Z,10.26
2022-12-29T00:44:13.111Z,10.26
2022-12-29T00:46:43.673Z,10.25
2022-12-29T00:49:34.078Z,10.20
2022-12-29T00:52:04.902Z,10.23
2022-12-29T00:54:34.571Z,10.20
2022-12-29T00:57:03.195Z,10.26
2022-12-29T00:59:33.077Z,10.34
2022-12-29T01:02:02.139Z,10.28
2022-12-29T01:04:32.553Z,10.30
2022-12-29T01:07:01.988Z,10.32
2022-12-29T01:09:47.881Z,10.32
2022-12-29T01:12:16.224Z,10.33
2022-12-29T01:14:47.123Z,10.33
2022-12-29T01:17:15.064Z,10.44
2022-12-29T01:19:45.423Z,10.40
2022-12-29T01:22:14.085Z,10.43
2022-12-29T01:24:42.057Z,10.44
2022-12-29T01:27:10.419Z,10.44
2022-12-29T01:29:38.765Z,10.53
2022-12-29T01:32:07.652Z,10.63
2022-12-29T01:34:35.608Z,10.54
2022-12-29T01:37:06.584Z,10.61
2022-12-29T01:39:36.117Z,10.47
2022-12-29T01:42:04.070Z,10.36
2022-12-29T01:44:52.421Z,10.26
2022-12-29T01:47:27.102Z,10.28
2022-12-29T01:49:58.241Z,10.39
2022-12-29T01:52:31.215Z,10.43
2022-12-29T01:55:01.455Z,10.46
2022-12-29T01:57:34.956Z,10.54
2022-12-29T02:00:07.891Z,10.57
2022-12-29T02:02:44.891Z,10.61
2022-12-29T02:05:22.293Z,10.49
2022-12-29T02:07:53.319Z,10.43
2022-12-29T02:10:22.390Z,10.30
2022-12-29T02:12:50.772Z,10.25
2022-12-29T02:19:43.639Z,10.10
2022-12-29T02:22:21.132Z,10.01
2022-12-29T02:25:20.240Z,9.95
2022-12-29T02:27:59.720Z,9.99
2022-12-29T02:30:46.421Z,9.99
2022-12-29T02:33:33.850Z,10.05
2022-12-29T02:36:10.312Z,10.16
2022-12-29T02:38:52.479Z,10.16
2022-12-29T02:41:25.681Z,10.20
2022-12-29T02:44:01.421Z,10.22
2022-12-29T02:46:38.403Z,10.26
2022-12-29T02:49:12.151Z,10.29
2022-12-29T02:51:48.007Z,10.46
2022-12-29T02:54:36.610Z,10.46
2022-12-29T02:57:04.806Z,10.65
2022-12-29T02:59:32.852Z,10.69
2022-12-29T03:02:23.356Z,10.67
2022-12-29T03:05:08.933Z,10.86
2022-12-29T03:07:45.855Z,10.81
2022-12-29T03:10:21.859Z,10.86
2022-12-29T03:13:14.563Z,10.85
2022-12-29T03:16:02.322Z,10.88
2022-12-29T03:18:40.277Z,10.89
2022-12-29T03:21:13.791Z,10.92
2022-12-29T03:23:45.693Z,10.99
2022-12-29T03:26:15.665Z,11.06
2022-12-29T03:28:47.058Z,10.99
2022-12-29T03:31:22.972Z,11.08
2022-12-29T03:33:53.848Z,11.05
2022-12-29T03:36:28.951Z,11.02
2022-12-29T03:39:03.318Z,10.94
2022-12-29T03:41:35.240Z,11.11
2022-12-29T03:44:08.254Z,11.12
2022-12-29T03:46:36.468Z,11.13
2022-12-29T03:49:06.968Z,11.06
2022-12-29T03:51:35.054Z,11.12
2022-12-29T03:54:05.006Z,11.15
2022-12-29T03:56:34.304Z,11.13
2022-12-29T03:59:06.175Z,11.09
2022-12-29T04:01:41.398Z,11.11
2022-12-29T04:04:10.860Z,10.99
2022-12-29T04:06:38.894Z,11.13
2022-12-29T04:09:11.746Z,11.20
2022-12-29T04:11:45.605Z,11.13
2022-12-29T04:14:15.739Z,11.19
2022-12-29T04:16:43.808Z,11.18
2022-12-29T04:19:14.142Z,11.16
2022-12-29T04:21:44.181Z,11.26
2022-12-29T04:24:13.924Z,11.24
2022-12-29T04:26:43.812Z,11.13
2022-12-29T04:29:35.498Z,10.95
2022-12-29T04:32:29.297Z,11.11
2022-12-29T04:35:00.428Z,11.06
2022-12-29T04:37:28.975Z,11.09
2022-12-29T04:39:58.397Z,11.15
2022-12-29T04:42:27.760Z,11.13
2022-12-29T04:44:55.902Z,11.19
2022-12-29T04:47:38.099Z,11.16
2022-12-29T04:50:48.954Z,11.05
2022-12-29T04:53:24.464Z,10.94
2022-12-29T04:55:55.145Z,10.88
2022-12-29T04:58:24.335Z,10.74
2022-12-29T05:00:54.364Z,10.67
2022-12-29T05:03:26.317Z,10.57
2022-12-29T05:05:57.425Z,10.63
2022-12-29T05:08:28.507Z,10.60
2022-12-29T05:11:00.162Z,10.63
2022-12-29T05:13:28.839Z,10.77
2022-12-29T05:15:56.865Z,10.74
2022-12-29T05:18:26.461Z,10.74
2022-12-29T05:20:56.688Z,10.74
2022-12-29T05:23:26.013Z,10.74
2022-12-29T05:26:07.028Z,10.82
2022-12-29T05:28:57.300Z,10.71
2022-12-29T05:31:25.357Z,10.77
2022-12-29T05:33:54.352Z,10.84
2022-12-29T05:36:24.731Z,10.88
2022-12-29T05:38:58.550Z,11.03
2022-12-29T05:41:27.669Z,10.92
2022-12-29T05:44:21.163Z,11.15
2022-12-29T05:47:08.837Z,11.18
2022-12-29T05:49:57.174Z,11.22
2022-12-29T05:52:36.246Z,11.24
2022-12-29T05:55:04.981Z,11.18
2022-12-29T05:57:34.390Z,11.24
2022-12-29T06:00:11.411Z,11.24
2022-12-29T06:02:48.167Z,11.29
2022-12-29T06:05:18.952Z,11.36
2022-12-29T06:07:48.412Z,11.41
2022-12-29T06:10:19.365Z,11.46
2022-12-29T06:12:52.145Z,11.43
2022-12-29T06:15:21.403Z,11.43
2022-12-29T06:17:51.491Z,11.54
2022-12-29T06:20:19.838Z,11.61
2022-12-29T06:22:50.954Z,11.48
2022-12-29T06:25:19.628Z,11.43
2022-12-29T06:27:48.284Z,11.57
2022-12-29T06:30:18.398Z,11.54
2022-12-29T06:32:47.654Z,11.60
2022-12-29T06:35:16.542Z,11.61
2022-12-29T06:37:52.672Z,10.89
2022-12-29T06:40:23.033Z,10.09
2022-12-29T06:43:12.897Z,9.80
2022-12-29T06:45:54.861Z,9.77
2022-12-29T06:48:23.153Z,9.63
2022-12-29T06:50:51.044Z,9.50
2022-12-29T06:53:21.269Z,9.40
2022-12-29T06:55:49.327Z,9.40
2022-12-29T06:58:17.443Z,9.40
2022-12-29T07:00:45.521Z,9.42
2022-12-29T07:03:13.492Z,9.48
2022-12-29T07:05:42.421Z,9.47
2022-12-29T07:08:10.312Z,9.55
2022-12-29T07:10:42.065Z,9.61
2022-12-29T07:13:10.486Z,9.80
2022-12-29T07:15:38.816Z,9.88
2022-12-29T07:18:07.344Z,10.01
2022-12-29T07:20:35.887Z,10.10
2022-12-29T07:23:04.497Z,10.09
2022-12-29T07:25:33.566Z,10.02
2022-12-29T07:28:02.775Z,10.08
2022-12-29T07:30:31.325Z,9.92
2022-12-29T07:33:02.016Z,9.88
2022-12-29T07:35:29.921Z,9.88
2022-12-29T07:37:58.230Z,9.91
2022-12-29T07:40:27.504Z,9.71
2022-12-29T07:42:55.425Z,9.75
2022-12-29T07:45:35.521Z,9.81
2022-12-29T07:48:12.757Z,9.78
2022-12-29T07:50:41.498Z,9.71
2022-12-29T07:53:09.676Z,9.77
2022-12-29T07:55:37.596Z,9.85
2022-12-29T07:58:06.032Z,9.92
2022-12-29T08:00:35.834Z,9.99
2022-12-29T08:03:05.288Z,10.02
2022-12-29T08:05:34.359Z,10.03
2022-12-29T08:08:03.320Z,9.94
2022-12-29T08:10:31.731Z,9.89
2022-12-29T08:13:00.036Z,9.98
2022-12-29T08:15:32.575Z,10.06
2022-12-29T08:18:02.315Z,10.09
2022-12-29T08:20:31.152Z,10.22
2022-12-29T08:22:59.160Z,10.32
2022-12-29T08:25:27.038Z,10.36
2022-12-29T08:27:55.443Z,10.37
2022-12-29T08:30:23.309Z,10.36
2022-12-29T08:32:52.490Z,10.41
2022-12-29T08:35:21.766Z,10.39
2022-12-29T08:37:49.578Z,10.40
2022-12-29T08:40:20.449Z,10.33
2022-12-29T08:42:48.364Z,10.29
2022-12-29T08:45:17.006Z,10.25
2022-12-29T08:47:45.945Z,10.22
2022-12-29T08:50:13.914Z,10.19
2022-12-29T08:52:43.648Z,10.12
2022-12-29T08:55:12.365Z,9.95
2022-12-29T08:57:40.999Z,9.75
2022-12-29T09:00:17.486Z,9.33
2022-12-29T09:02:45.896Z,9.39
2022-12-29T09:05:14.004Z,9.44
2022-12-29T09:07:43.872Z,9.46
2022-12-29T09:10:11.856Z,9.47
2022-12-29T09:12:39.693Z,9.48
2022-12-29T09:15:09.575Z,9.48
2022-12-29T09:17:43.740Z,9.36
2022-12-29T09:20:12.664Z,9.51
2022-12-29T09:22:41.107Z,9.63
2022-12-29T09:25:11.637Z,9.75
2022-12-29T09:27:39.739Z,9.84
2022-12-29T09:30:10.238Z,9.81
2022-12-29T09:32:44.560Z,9.81
2022-12-29T09:35:13.151Z,9.95
2022-12-29T09:37:41.593Z,10.09
2022-12-29T09:40:26.080Z,10.13
2022-12-29T09:43:07.755Z,10.06
2022-12-29T09:45:42.746Z,10.05
2022-12-29T09:48:18.491Z,10.02
2022-12-29T09:50:50.060Z,10.09
2022-12-29T09:53:23.724Z,10.01
2022-12-29T09:55:56.767Z,9.97
2022-12-29T09:58:30.333Z,9.99
2022-12-29T10:01:05.751Z,9.89
2022-12-29T10:03:43.673Z,9.77
2022-12-29T10:06:15.817Z,9.77
2022-12-29T10:08:51.589Z,9.74
2022-12-29T10:11:33.217Z,9.77
2022-12-29T10:14:26.400Z,9.81
2022-12-29T10:17:03.848Z,9.85
2022-12-29T10:19:59.896Z,10.17
2022-12-29T10:22:40.931Z,10.09
2022-12-29T10:25:17.903Z,9.82
2022-12-29T10:27:50.323Z,9.77
2022-12-29T10:30:20.098Z,9.81
2022-12-29T10:32:52.832Z,9.91
2022-12-29T10:35:24.606Z,9.94
2022-12-29T10:37:58.755Z,10.12
2022-12-29T10:40:31.075Z,10.32
2022-12-29T10:43:02.026Z,10.41
2022-12-29T10:45:33.629Z,10.46
2022-12-29T10:48:08.404Z,10.60
2022-12-29T10:50:37.822Z,10.64
2022-12-29T10:53:07.656Z,10.75
2022-12-29T10:55:38.873Z,10.86
2022-12-29T10:58:12.666Z,10.75
2022-12-29T11:00:40.739Z,10.86
2022-12-29T11:03:43.914Z,10.79
2022-12-29T11:06:15.541Z,10.94
2022-12-29T11:09:00.373Z,11.08
2022-12-29T11:11:30.099Z,10.88
2022-12-29T11:14:04.351Z,10.86
2022-12-29T11:16:35.687Z,10.74
2022-12-29T11:19:04.509Z,10.69
2022-12-29T11:21:41.558Z,10.74
2022-12-29T11:24:22.369Z,10.69
2022-12-29T11:26:54.369Z,10.69
2022-12-29T11:29:26.928Z,10.68
2022-12-29T11:31:57.633Z,10.65
2022-12-29T11:34:28.045Z,10.67
2022-12-29T11:37:02.291Z,10.74
2022-12-29T11:39:42.154Z,10.65
2022-12-29T11:42:19.562Z,10.64
2022-12-29T11:44:50.567Z,10.56
2022-12-29T11:47:30.481Z,10.63
2022-12-29T11:50:00.953Z,10.77
2022-12-29T11:52:34.594Z,10.74
2022-12-29T11:55:05.343Z,10.75
2022-12-29T11:57:37.397Z,10.72
2022-12-29T12:00:17.546Z,10.78
2022-12-29T12:02:51.840Z,10.85
2022-12-29T12:05:28.074Z,10.79
2022-12-29T12:08:01.855Z,10.82
2022-12-29T12:10:33.358Z,10.84
2022-12-29T12:13:08.358Z,10.84
2022-12-29T12:15:46.745Z,10.92
2022-12-29T12:18:23.770Z,10.88
2022-12-29T12:20:56.302Z,10.89
2022-12-29T12:23:35.516Z,10.78
2022-12-29T12:26:11.420Z,10.88
2022-12-29T12:28:47.060Z,10.88
2022-12-29T12:31:26.478Z,10.84
2022-12-29T12:34:01.597Z,10.99
2022-12-29T12:36:57.733Z,11.03
2022-12-29T12:39:29.750Z,11.05
2022-12-29T12:42:10.978Z,11.08
2022-12-29T12:44:50.308Z,11.03
2022-12-29T12:47:37.889Z,11.15
2022-12-29T12:50:21.890Z,11.13
2022-12-29T12:53:18.867Z,11.12
2022-12-29T12:56:06.027Z,11.11
2022-12-29T12:58:42.263Z,11.08
2022-12-29T13:01:26.728Z,11.15
2022-12-29T13:04:13.889Z,11.15
2022-12-29T13:06:51.859Z,11.05
2022-12-29T13:09:41.952Z,11.08
2022-12-29T13:12:21.652Z,11.09
2022-12-29T13:15:00.708Z,10.99
2022-12-29T13:17:35.417Z,11.09
2022-12-29T13:20:13.388Z,11.18
2022-12-29T13:22:48.523Z,10.98
2022-12-29T13:25:37.016Z,11.06
2022-12-29T13:28:14.895Z,11.08
2022-12-29T13:30:47.461Z,11.08
2022-12-29T13:33:23.979Z,10.96
2022-12-29T13:36:02.188Z,10.96
2022-12-29T13:38:36.609Z,10.94
2022-12-29T13:41:10.151Z,10.98
2022-12-29T13:43:43.277Z,10.92
2022-12-29T13:46:15.753Z,10.88
2022-12-29T13:48:52.312Z,10.88
2022-12-29T13:51:27.758Z,10.81
2022-12-29T13:54:20.657Z,10.85
2022-12-29T13:56:54.784Z,10.91
2022-12-29T13:59:29.851Z,10.92
2022-12-29T14:02:01.156Z,10.89
2022-12-29T14:04:34.359Z,10.75
2022-12-29T14:07:06.159Z,10.75
2022-12-29T14:09:49.082Z,10.65
2022-12-29T14:12:30.344Z,10.64
2022-12-29T14:15:06.222Z,10.65
2022-12-29T14:17:45.902Z,10.64
2022-12-29T14:20:22.272Z,10.69
2022-12-29T14:23:04.284Z,10.64
2022-12-29T14:25:57.074Z,10.64
2022-12-29T14:28:27.020Z,10.53
2022-12-29T14:30:55.908Z,10.44
2022-12-29T14:33:27.840Z,10.16
2022-12-29T14:35:56.902Z,10.12
2022-12-29T14:38:32.157Z,9.85
2022-12-29T14:41:27.713Z,9.65
2022-12-29T14:43:58.422Z,9.57
2022-12-29T14:46:27.733Z,9.55
2022-12-29T14:48:58.693Z,9.53
2022-12-29T14:51:37.537Z,9.63
2022-12-29T14:54:38.047Z,9.73
2022-12-29T14:57:13.516Z,9.75
2022-12-29T14:59:41.752Z,9.78
2022-12-29T15:02:18.515Z,9.77
2022-12-29T15:04:48.412Z,9.88
2022-12-29T15:07:19.954Z,9.89
2022-12-29T15:09:55.556Z,9.97
2022-12-29T15:12:37.930Z,10.03
2022-12-29T15:15:23.463Z,10.03
2022-12-29T15:17:52.788Z,10.10
2022-12-29T15:20:27.658Z,10.16
2022-12-29T15:22:58.663Z,10.10
2022-12-29T15:25:27.408Z,10.10
2022-12-29T15:28:06.378Z,10.15
2022-12-29T15:30:35.262Z,10.13
2022-12-29T15:33:03.908Z,10.17
2022-12-29T15:35:35.840Z,10.19
2022-12-29T15:38:16.893Z,10.13
2022-12-29T15:40:47.034Z,10.15
2022-12-29T15:43:32.679Z,10.19
2022-12-29T15:46:03.464Z,10.19
2022-12-29T15:48:33.336Z,10.17
2022-12-29T15:51:02.071Z,10.16
2022-12-29T15:53:35.142Z,10.16
2022-12-29T15:56:09.630Z,10.15
2022-12-29T15:58:46.456Z,10.15
2022-12-29T16:01:21.354Z,10.22
2022-12-29T16:03:51.830Z,10.19
2022-12-29T16:06:33.172Z,10.06
2022-12-29T16:09:05.047Z,10.16
2022-12-29T16:11:37.590Z,10.10
2022-12-29T16:14:12.880Z,10.08
2022-12-29T16:16:43.394Z,10.10
2022-12-29T16:19:21.430Z,10.13
2022-12-29T16:21:49.992Z,10.06
2022-12-29T16:24:21.206Z,10.03
2022-12-29T16:26:53.079Z,10.01
2022-12-29T16:29:23.907Z,10.02
2022-12-29T16:32:01.907Z,10.02
2022-12-29T16:34:32.770Z,10.06
2022-12-29T16:37:02.992Z,10.02
2022-12-29T16:39:36.837Z,9.98
2022-12-29T16:42:36.701Z,9.94
2022-12-29T16:45:22.649Z,9.94
2022-12-29T16:48:19.283Z,9.97
2022-12-29T16:50:47.592Z,10.03
2022-12-29T16:53:22.347Z,10.12
2022-12-29T16:55:50.689Z,10.13
2022-12-29T16:58:22.669Z,10.08
2022-12-29T17:00:50.938Z,10.08
2022-12-29T17:03:20.391Z,9.94
2022-12-29T17:05:52.745Z,9.84
2022-12-29T17:08:24.261Z,9.88
2022-12-29T17:11:10.763Z,9.88
2022-12-29T17:13:39.084Z,9.89
2022-12-29T17:16:09.089Z,9.95
2022-12-29T17:18:39.410Z,9.91
2022-12-29T17:21:07.400Z,9.95
2022-12-29T17:23:35.345Z,10.06
2022-12-29T17:26:04.361Z,10.13
2022-12-29T17:28:33.643Z,10.12
2022-12-29T17:31:06.147Z,10.13
2022-12-29T17:33:39.357Z,10.12
2022-12-29T17:36:08.921Z,10.19
2022-12-29T17:38:37.676Z,10.09
2022-12-29T17:41:06.028Z,10.02
2022-12-29T17:43:37.203Z,9.95
2022-12-29T17:46:08.211Z,9.99
2022-12-29T17:48:38.605Z,9.99
2022-12-29T17:51:08.054Z,10.01
2022-12-29T17:53:36.099Z,10.05
2022-12-29T17:56:04.820Z,10.05
2022-12-29T17:58:34.268Z,10.02
2022-12-29T18:01:03.713Z,10.05
2022-12-29T18:03:35.275Z,9.95
2022-12-29T18:06:08.261Z,9.99
2022-12-29T18:08:38.309Z,9.97
2022-12-29T18:11:16.444Z,9.85
2022-12-29T18:13:46.865Z,9.71
2022-12-29T18:16:15.769Z,9.69
2022-12-29T18:18:43.977Z,9.61
2022-12-29T18:21:19.817Z,9.46
2022-12-29T18:23:49.004Z,9.12
2022-12-29T18:26:25.700Z,8.95
2022-12-29T18:28:56.417Z,8.80
2022-12-29T18:31:26.515Z,8.66
2022-12-29T18:33:55.329Z,8.59
2022-12-29T18:36:25.554Z,8.50
2022-12-29T18:38:54.849Z,8.45
2022-12-29T18:41:24.782Z,8.38
2022-12-29T18:43:53.521Z,8.26
2022-12-29T18:46:23.667Z,8.28
2022-12-29T18:48:52.000Z,8.25
2022-12-29T18:51:21.938Z,8.26
2022-12-29T18:53:54.694Z,8.29
2022-12-29T18:56:23.602Z,8.25
2022-12-29T18:58:53.400Z,8.08
2022-12-29T19:01:23.708Z,7.95
2022-12-29T19:03:51.920Z,7.88
2022-12-29T19:06:21.396Z,7.78
2022-12-29T19:08:49.504Z,7.71
2022-12-29T19:11:19.319Z,7.71
2022-12-29T19:13:48.332Z,7.74
2022-12-29T19:16:20.749Z,7.74
2022-12-29T19:19:07.819Z,7.71
2022-12-29T19:21:37.731Z,7.73
2022-12-29T19:24:07.833Z,7.81
2022-12-29T19:26:39.319Z,7.80
2022-12-29T19:29:10.155Z,7.74
2022-12-29T19:31:39.511Z,7.74
2022-12-29T19:34:07.516Z,7.70
2022-12-29T19:36:36.543Z,7.67
2022-12-29T19:39:04.904Z,7.55
2022-12-29T19:41:32.937Z,7.52
2022-12-29T19:44:02.788Z,7.52
2022-12-29T19:46:30.844Z,7.51
2022-12-29T19:49:00.427Z,7.55
2022-12-29T19:51:29.388Z,7.56
2022-12-29T19:53:58.500Z,7.73
2022-12-29T19:56:26.974Z,7.78
2022-12-29T19:58:56.998Z,7.84
2022-12-29T20:01:26.596Z,7.78
2022-12-29T20:03:55.552Z,7.77
2022-12-29T20:06:24.225Z,7.80
2022-12-29T20:08:52.137Z,7.80
2022-12-29T20:11:20.498Z,7.74
2022-12-29T20:13:48.966Z,7.66
2022-12-29T20:16:19.158Z,7.60
2022-12-29T20:18:49.509Z,7.63
2022-12-29T20:21:18.254Z,7.60
2022-12-29T20:23:46.901Z,7.55
2022-12-29T20:26:16.992Z,7.55
2022-12-29T20:28:45.329Z,7.58
2022-12-29T20:31:20.763Z,7.55
2022-12-29T20:33:50.180Z,7.53
2022-12-29T20:36:20.728Z,7.56
2022-12-29T20:38:51.593Z,7.53
2022-12-29T20:43:54.834Z,7.49
2022-12-29T20:46:28.109Z,7.59
2022-12-29T20:49:01.409Z,7.55
2022-12-29T20:51:59.211Z,7.53
2022-12-29T20:54:20.148Z,7.56
2022-12-29T20:56:48.756Z,7.59
2022-12-29T20:59:27.494Z,7.62
2022-12-29T21:01:57.135Z,7.67
2022-12-29T21:04:25.399Z,7.77
2022-12-29T21:06:54.010Z,7.74
2022-12-29T21:09:22.393Z,7.76
2022-12-29T21:11:50.350Z,7.78
2022-12-29T21:14:20.662Z,7.73
2022-12-29T21:16:48.654Z,7.74
2022-12-29T21:19:17.733Z,7.71
2022-12-29T21:21:45.809Z,7.74
2022-12-29T21:24:13.751Z,7.77
2022-12-29T21:26:44.555Z,7.83
2022-12-29T21:29:12.473Z,7.87
2022-12-29T21:31:42.241Z,7.87
2022-12-29T21:34:11.261Z,7.83
2022-12-29T21:36:39.169Z,7.83
2022-12-29T21:39:07.758Z,7.83
2022-12-29T21:41:37.115Z,7.77
2022-12-29T21:44:22.855Z,7.80
2022-12-29T21:46:52.756Z,7.78
2022-12-29T21:49:21.491Z,7.83
2022-12-29T21:51:51.023Z,7.76
2022-12-29T21:54:38.563Z,7.77
2022-12-29T21:57:07.152Z,7.73
2022-12-29T21:59:53.777Z,7.76
2022-12-29T22:02:43.079Z,7.77
2022-12-29T22:05:31.470Z,7.81
2022-12-29T22:08:17.200Z,7.83
2022-12-29T22:11:05.548Z,7.81
2022-12-29T22:13:34.467Z,7.87
2022-12-29T22:16:04.607Z,7.84
2022-12-29T22:18:35.027Z,7.78
2022-12-29T22:21:04.331Z,7.78
2022-12-29T22:23:32.900Z,7.86
2022-12-29T22:26:04.792Z,7.91
2022-12-29T22:28:33.908Z,7.91
2022-12-29T22:31:02.374Z,7.93
2022-12-29T22:33:31.347Z,7.90
2022-12-29T22:36:00.790Z,7.95
2022-12-29T22:38:29.008Z,7.95
2022-12-29T22:41:01.340Z,7.88
2022-12-29T22:43:29.976Z,7.90
2022-12-29T22:46:04.530Z,7.90
2022-12-29T22:48:33.185Z,7.87
2022-12-29T22:51:03.305Z,7.87
2022-12-29T22:53:31.991Z,7.88
2022-12-29T22:56:08.136Z,7.81
2022-12-29T22:58:37.272Z,7.86
2022-12-29T23:01:05.749Z,7.84
2022-12-29T23:03:35.039Z,7.84
2022-12-29T23:06:07.976Z,7.81
2022-12-29T23:08:37.745Z,7.76
2022-12-29T23:11:08.424Z,7.78
2022-12-29T23:13:36.988Z,7.83
2022-12-29T23:16:05.166Z,7.80
2022-12-29T23:18:34.561Z,7.76
2022-12-29T23:21:04.604Z,7.73
2022-12-29T23:23:53.035Z,7.70
2022-12-29T23:26:23.826Z,7.69
2022-12-29T23:28:59.518Z,7.67
2022-12-29T23:31:29.110Z,7.70
2022-12-29T23:33:57.856Z,7.74
2022-12-29T23:36:27.659Z,7.74
2022-12-29T23:38:56.376Z,7.71
2022-12-29T23:41:24.510Z,7.63
2022-12-29T23:43:55.041Z,7.65
2022-12-29T23:46:25.288Z,7.67
2022-12-29T23:48:53.482Z,7.66
2022-12-29T23:51:22.244Z,7.69
2022-12-29T23:53:52.015Z,7.63
2022-12-29T23:56:22.590Z,7.62
2022-12-29T23:58:52.460Z,7.59
